Aktuální stav
Mostly Scattered
Clouds



Tlak
1009.82 (hPa) - 29.82 (inHG)
Viditelnost

9.7 (km) - 6.0 (míle)
   Teplota
20  °C
68°F
11  °C
Rosný bod
56  %
 Vlhkost
   Rychlost větru
2.2  m/s
5  mph
8  km/h
4  kts
   Směr větru
 250°
Západo jiho
západ
   Leťiště
LKLN
Location Plzeň-Líně Airport 36 km (22.37 mi)
Metar :LKLN 151500Z AUTO 25004KT 210V320 9999 SCT036 20/11 Q1010
Sat 15th June 16:00 pm